sensor_id;sensor_type;location;lat;lon;timestamp;temperature;humidity
72604;DHT22;60645;56.968;24.196;2023-08-08T03:36:01;14.80;99.90
72604;DHT22;60645;56.968;24.196;2023-08-08T03:38:28;14.80;99.90
72604;DHT22;60645;56.968;24.196;2023-08-08T03:40:55;14.80;99.90
72604;DHT22;60645;56.968;24.196;2023-08-08T03:43:22;14.90;99.90
72604;DHT22;60645;56.968;24.196;2023-08-08T03:45:48;14.90;99.90
72604;DHT22;60645;56.968;24.196;2023-08-08T03:48:15;14.80;99.90
72604;DHT22;60645;56.968;24.196;2023-08-08T03:50:42;14.80;99.90
72604;DHT22;60645;56.968;24.196;2023-08-08T03:53:09;14.80;99.90
72604;DHT22;60645;56.968;24.196;2023-08-08T03:55:36;14.70;99.90
72604;DHT22;60645;56.968;24.196;2023-08-08T03:58:02;14.70;99.90
72604;DHT22;60645;56.968;24.196;2023-08-08T04:00:29;14.70;99.90
72604;DHT22;60645;56.968;24.196;2023-08-08T04:02:56;14.80;99.90
72604;DHT22;60645;56.968;24.196;2023-08-08T04:05:23;14.70;99.90
72604;DHT22;60645;56.968;24.196;2023-08-08T04:07:50;14.60;99.90
72604;DHT22;60645;56.968;24.196;2023-08-08T04:10:17;14.70;99.90
72604;DHT22;60645;56.968;24.196;2023-08-08T04:12:44;14.60;99.90
72604;DHT22;60645;56.968;24.196;2023-08-08T04:15:10;14.70;99.90
72604;DHT22;60645;56.968;24.196;2023-08-08T04:17:37;14.70;99.90
72604;DHT22;60645;56.968;24.196;2023-08-08T04:20:04;14.70;99.90
72604;DHT22;60645;56.968;24.196;2023-08-08T04:22:32;14.60;99.90
72604;DHT22;60645;56.968;24.196;2023-08-08T04:24:59;14.50;99.90
72604;DHT22;60645;56.968;24.196;2023-08-08T04:27:26;14.60;99.90
72604;DHT22;60645;56.968;24.196;2023-08-08T04:29:52;14.60;99.90
72604;DHT22;60645;56.968;24.196;2023-08-08T04:32:19;14.50;99.90
72604;DHT22;60645;56.968;24.196;2023-08-08T04:34:46;14.60;99.90
72604;DHT22;60645;56.968;24.196;2023-08-08T04:37:13;14.60;99.90
72604;DHT22;60645;56.968;24.196;2023-08-08T04:39:40;14.70;99.90
72604;DHT22;60645;56.968;24.196;2023-08-08T04:42:06;14.60;99.90
72604;DHT22;60645;56.968;24.196;2023-08-08T04:44:33;14.60;99.90
72604;DHT22;60645;56.968;24.196;2023-08-08T04:47:00;14.60;99.90
72604;DHT22;60645;56.968;24.196;2023-08-08T04:49:26;14.70;99.90
72604;DHT22;60645;56.968;24.196;2023-08-08T04:51:55;14.70;99.90
72604;DHT22;60645;56.968;24.196;2023-08-08T04:54:22;14.70;99.90
72604;DHT22;60645;56.968;24.196;2023-08-08T04:56:49;14.70;99.90
72604;DHT22;60645;56.968;24.196;2023-08-08T04:59:15;14.70;99.90
72604;DHT22;60645;56.968;24.196;2023-08-08T05:01:42;14.70;99.90
72604;DHT22;60645;56.968;24.196;2023-08-08T05:04:09;14.70;99.90
72604;DHT22;60645;56.968;24.196;2023-08-08T05:06:36;14.90;99.90
72604;DHT22;60645;56.968;24.196;2023-08-08T05:09:03;14.90;99.90
72604;DHT22;60645;56.968;24.196;2023-08-08T05:11:30;15.00;99.90
72604;DHT22;60645;56.968;24.196;2023-08-08T05:13:56;14.90;99.40
72604;DHT22;60645;56.968;24.196;2023-08-08T05:16:23;15.00;99.90
72604;DHT22;60645;56.968;24.196;2023-08-08T05:18:51;15.10;99.20
72604;DHT22;60645;56.968;24.196;2023-08-08T05:21:18;15.10;98.90
72604;DHT22;60645;56.968;24.196;2023-08-08T05:23:45;15.20;98.60
72604;DHT22;60645;56.968;24.196;2023-08-08T05:26:12;15.30;98.10
72604;DHT22;60645;56.968;24.196;2023-08-08T05:28:38;15.50;97.70
72604;DHT22;60645;56.968;24.196;2023-08-08T05:31:05;15.50;97.10
72604;DHT22;60645;56.968;24.196;2023-08-08T05:33:34;15.30;97.40
72604;DHT22;60645;56.968;24.196;2023-08-08T05:36:01;15.30;97.50
72604;DHT22;60645;56.968;24.196;2023-08-08T05:38:28;15.30;97.60
72604;DHT22;60645;56.968;24.196;2023-08-08T05:40:55;15.40;97.50
72604;DHT22;60645;56.968;24.196;2023-08-08T05:43:22;15.50;97.00
72604;DHT22;60645;56.968;24.196;2023-08-08T05:45:48;15.50;96.10
72604;DHT22;60645;56.968;24.196;2023-08-08T05:48:15;15.60;96.50
72604;DHT22;60645;56.968;24.196;2023-08-08T05:50:42;15.70;95.70
72604;DHT22;60645;56.968;24.196;2023-08-08T05:53:09;15.60;95.60
72604;DHT22;60645;56.968;24.196;2023-08-08T05:55:36;15.70;95.50
72604;DHT22;60645;56.968;24.196;2023-08-08T05:58:03;15.80;95.30
72604;DHT22;60645;56.968;24.196;2023-08-08T06:00:30;15.90;94.80
72604;DHT22;60645;56.968;24.196;2023-08-08T06:02:58;15.70;94.60
72604;DHT22;60645;56.968;24.196;2023-08-08T06:05:25;15.90;94.20
72604;DHT22;60645;56.968;24.196;2023-08-08T06:07:52;15.90;93.90
72604;DHT22;60645;56.968;24.196;2023-08-08T06:10:18;15.80;94.50
72604;DHT22;60645;56.968;24.196;2023-08-08T06:12:45;16.00;94.50
72604;DHT22;60645;56.968;24.196;2023-08-08T06:15:12;16.20;93.50
72604;DHT22;60645;56.968;24.196;2023-08-08T06:17:39;16.00;92.90
72604;DHT22;60645;56.968;24.196;2023-08-08T06:20:06;16.00;92.80
72604;DHT22;60645;56.968;24.196;2023-08-08T06:22:34;16.10;93.10
72604;DHT22;60645;56.968;24.196;2023-08-08T06:25:01;16.10;93.30
72604;DHT22;60645;56.968;24.196;2023-08-08T06:27:28;16.00;93.00
72604;DHT22;60645;56.968;24.196;2023-08-08T06:29:55;16.00;92.60
72604;DHT22;60645;56.968;24.196;2023-08-08T06:32:22;16.20;92.40
72604;DHT22;60645;56.968;24.196;2023-08-08T06:34:49;16.30;92.50
72604;DHT22;60645;56.968;24.196;2023-08-08T06:37:16;16.20;91.70
72604;DHT22;60645;56.968;24.196;2023-08-08T06:39:43;16.10;92.60
72604;DHT22;60645;56.968;24.196;2023-08-08T06:42:10;16.20;92.10
72604;DHT22;60645;56.968;24.196;2023-08-08T06:44:43;16.10;91.30
72604;DHT22;60645;56.968;24.196;2023-08-08T06:47:10;16.10;92.20
72604;DHT22;60645;56.968;24.196;2023-08-08T06:49:39;16.10;91.60
72604;DHT22;60645;56.968;24.196;2023-08-08T06:52:06;16.10;91.60
72604;DHT22;60645;56.968;24.196;2023-08-08T06:54:33;16.10;91.40
72604;DHT22;60645;56.968;24.196;2023-08-08T06:57:00;16.00;91.00
72604;DHT22;60645;56.968;24.196;2023-08-08T06:59:29;16.10;91.40
72604;DHT22;60645;56.968;24.196;2023-08-08T07:01:55;15.90;92.00
72604;DHT22;60645;56.968;24.196;2023-08-08T07:04:23;15.90;92.20
72604;DHT22;60645;56.968;24.196;2023-08-08T07:06:50;15.90;92.00
72604;DHT22;60645;56.968;24.196;2023-08-08T07:09:17;16.00;91.10
72604;DHT22;60645;56.968;24.196;2023-08-08T07:11:43;16.00;91.20
72604;DHT22;60645;56.968;24.196;2023-08-08T07:14:10;15.90;91.20
72604;DHT22;60645;56.968;24.196;2023-08-08T07:16:37;15.90;91.10
72604;DHT22;60645;56.968;24.196;2023-08-08T07:19:04;16.00;90.90
72604;DHT22;60645;56.968;24.196;2023-08-08T07:21:32;16.00;90.40
72604;DHT22;60645;56.968;24.196;2023-08-08T07:23:59;16.00;90.60
72604;DHT22;60645;56.968;24.196;2023-08-08T07:26:26;16.00;90.40
72604;DHT22;60645;56.968;24.196;2023-08-08T07:28:53;15.80;91.10
72604;DHT22;60645;56.968;24.196;2023-08-08T07:31:19;15.80;91.00
72604;DHT22;60645;56.968;24.196;2023-08-08T07:33:46;15.80;90.40
72604;DHT22;60645;56.968;24.196;2023-08-08T07:36:13;15.90;90.70
72604;DHT22;60645;56.968;24.196;2023-08-08T07:38:40;16.00;89.40
72604;DHT22;60645;56.968;24.196;2023-08-08T07:41:07;16.20;89.30
72604;DHT22;60645;56.968;24.196;2023-08-08T07:43:33;16.40;88.10
72604;DHT22;60645;56.968;24.196;2023-08-08T07:46:00;16.70;86.70
72604;DHT22;60645;56.968;24.196;2023-08-08T07:48:29;17.00;85.20
72604;DHT22;60645;56.968;24.196;2023-08-08T07:50:56;17.00;85.20
72604;DHT22;60645;56.968;24.196;2023-08-08T07:53:23;17.20;84.40
72604;DHT22;60645;56.968;24.196;2023-08-08T07:55:49;17.40;83.20
72604;DHT22;60645;56.968;24.196;2023-08-08T07:58:16;17.10;84.20
72604;DHT22;60645;56.968;24.196;2023-08-08T08:00:43;17.10;84.70
72604;DHT22;60645;56.968;24.196;2023-08-08T08:03:11;16.90;84.70
72604;DHT22;60645;56.968;24.196;2023-08-08T08:05:38;17.00;84.50
72604;DHT22;60645;56.968;24.196;2023-08-08T08:08:04;17.20;83.60
72604;DHT22;60645;56.968;24.196;2023-08-08T08:10:31;17.20;82.60
72604;DHT22;60645;56.968;24.196;2023-08-08T08:12:58;17.20;83.00
72604;DHT22;60645;56.968;24.196;2023-08-08T08:15:25;17.20;82.70
72604;DHT22;60645;56.968;24.196;2023-08-08T08:17:52;17.20;82.70
72604;DHT22;60645;56.968;24.196;2023-08-08T08:20:19;17.20;82.10
72604;DHT22;60645;56.968;24.196;2023-08-08T08:22:46;17.00;82.50
72604;DHT22;60645;56.968;24.196;2023-08-08T08:25:13;17.00;82.90
72604;DHT22;60645;56.968;24.196;2023-08-08T08:27:40;17.30;82.20
72604;DHT22;60645;56.968;24.196;2023-08-08T08:30:07;18.00;80.40
72604;DHT22;60645;56.968;24.196;2023-08-08T08:32:37;18.00;79.70
72604;DHT22;60645;56.968;24.196;2023-08-08T08:35:04;17.70;80.30
72604;DHT22;60645;56.968;24.196;2023-08-08T08:37:32;17.60;81.00
72604;DHT22;60645;56.968;24.196;2023-08-08T08:39:59;17.50;80.70
72604;DHT22;60645;56.968;24.196;2023-08-08T08:42:27;17.40;81.60
72604;DHT22;60645;56.968;24.196;2023-08-08T08:44:56;17.50;81.60
72604;DHT22;60645;56.968;24.196;2023-08-08T08:47:24;17.60;80.90
72604;DHT22;60645;56.968;24.196;2023-08-08T08:49:53;18.10;79.70
72604;DHT22;60645;56.968;24.196;2023-08-08T08:52:20;17.90;79.90
72604;DHT22;60645;56.968;24.196;2023-08-08T08:54:52;17.90;80.40
72604;DHT22;60645;56.968;24.196;2023-08-08T08:57:22;17.80;79.50
72604;DHT22;60645;56.968;24.196;2023-08-08T08:59:52;17.40;80.70
72604;DHT22;60645;56.968;24.196;2023-08-08T09:02:19;17.30;80.80
72604;DHT22;60645;56.968;24.196;2023-08-08T09:04:46;17.40;80.80
72604;DHT22;60645;56.968;24.196;2023-08-08T09:07:13;17.40;80.30
72604;DHT22;60645;56.968;24.196;2023-08-08T09:09:44;17.40;80.30
72604;DHT22;60645;56.968;24.196;2023-08-08T09:12:11;17.50;80.40
72604;DHT22;60645;56.968;24.196;2023-08-08T09:14:42;18.00;80.10
72604;DHT22;60645;56.968;24.196;2023-08-08T09:17:12;18.40;78.60
72604;DHT22;60645;56.968;24.196;2023-08-08T09:19:43;18.40;78.40
72604;DHT22;60645;56.968;24.196;2023-08-08T09:22:12;18.60;78.00
72604;DHT22;60645;56.968;24.196;2023-08-08T09:24:41;18.20;78.70
72604;DHT22;60645;56.968;24.196;2023-08-08T09:27:08;17.90;80.10
72604;DHT22;60645;56.968;24.196;2023-08-08T09:29:36;17.40;81.70
72604;DHT22;60645;56.968;24.196;2023-08-08T09:32:04;17.40;81.40
72604;DHT22;60645;56.968;24.196;2023-08-08T09:34:31;17.30;82.10
72604;DHT22;60645;56.968;24.196;2023-08-08T09:36:58;17.30;81.70
72604;DHT22;60645;56.968;24.196;2023-08-08T09:39:27;17.40;80.50
72604;DHT22;60645;56.968;24.196;2023-08-08T09:41:55;17.40;80.60
72604;DHT22;60645;56.968;24.196;2023-08-08T09:44:28;17.60;81.40
72604;DHT22;60645;56.968;24.196;2023-08-08T09:46:56;17.80;80.70
72604;DHT22;60645;56.968;24.196;2023-08-08T09:49:23;17.40;82.50
72604;DHT22;60645;56.968;24.196;2023-08-08T09:51:50;17.30;83.20
72604;DHT22;60645;56.968;24.196;2023-08-08T09:54:17;17.10;82.90
72604;DHT22;60645;56.968;24.196;2023-08-08T09:56:44;17.00;84.10
72604;DHT22;60645;56.968;24.196;2023-08-08T09:59:11;16.60;84.70
72604;DHT22;60645;56.968;24.196;2023-08-08T10:01:39;16.40;86.10
72604;DHT22;60645;56.968;24.196;2023-08-08T10:04:07;16.30;86.10
72604;DHT22;60645;56.968;24.196;2023-08-08T10:06:34;16.30;86.90
72604;DHT22;60645;56.968;24.196;2023-08-08T10:09:01;16.40;86.80
72604;DHT22;60645;56.968;24.196;2023-08-08T10:11:30;16.50;87.10
72604;DHT22;60645;56.968;24.196;2023-08-08T10:13:57;16.20;87.50
72604;DHT22;60645;56.968;24.196;2023-08-08T10:16:24;16.30;87.60
72604;DHT22;60645;56.968;24.196;2023-08-08T10:18:55;16.30;86.30
72604;DHT22;60645;56.968;24.196;2023-08-08T10:21:23;16.30;88.40
72604;DHT22;60645;56.968;24.196;2023-08-08T10:24:00;16.30;87.70
72604;DHT22;60645;56.968;24.196;2023-08-08T10:26:27;16.60;86.30
72604;DHT22;60645;56.968;24.196;2023-08-08T10:28:55;16.90;85.50
72604;DHT22;60645;56.968;24.196;2023-08-08T10:31:25;17.30;84.50
72604;DHT22;60645;56.968;24.196;2023-08-08T10:34:02;17.20;84.00
72604;DHT22;60645;56.968;24.196;2023-08-08T10:36:48;17.30;84.80
72604;DHT22;60645;56.968;24.196;2023-08-08T10:39:15;17.30;84.30
72604;DHT22;60645;56.968;24.196;2023-08-08T10:41:47;17.50;84.90
72604;DHT22;60645;56.968;24.196;2023-08-08T10:44:20;18.60;80.90
72604;DHT22;60645;56.968;24.196;2023-08-08T10:46:47;19.30;78.70
72604;DHT22;60645;56.968;24.196;2023-08-08T10:49:14;19.50;78.50
72604;DHT22;60645;56.968;24.196;2023-08-08T10:51:42;19.30;78.50
72604;DHT22;60645;56.968;24.196;2023-08-08T10:54:14;19.20;78.40
72604;DHT22;60645;56.968;24.196;2023-08-08T10:56:47;19.30;77.90
72604;DHT22;60645;56.968;24.196;2023-08-08T10:59:15;20.10;76.10
72604;DHT22;60645;56.968;24.196;2023-08-08T11:01:44;20.10;74.50
72604;DHT22;60645;56.968;24.196;2023-08-08T11:04:12;19.70;75.50
72604;DHT22;60645;56.968;24.196;2023-08-08T11:06:39;19.60;75.80
72604;DHT22;60645;56.968;24.196;2023-08-08T11:09:06;19.40;76.30
72604;DHT22;60645;56.968;24.196;2023-08-08T11:11:37;19.30;76.20
72604;DHT22;60645;56.968;24.196;2023-08-08T11:14:30;19.20;76.70
72604;DHT22;60645;56.968;24.196;2023-08-08T11:16:57;19.60;76.10
72604;DHT22;60645;56.968;24.196;2023-08-08T11:19:24;19.00;75.90
72604;DHT22;60645;56.968;24.196;2023-08-08T11:21:51;18.90;76.90
72604;DHT22;60645;56.968;24.196;2023-08-08T11:24:18;19.10;76.10
72604;DHT22;60645;56.968;24.196;2023-08-08T11:26:45;19.50;75.10
72604;DHT22;60645;56.968;24.196;2023-08-08T11:29:14;19.30;74.50
72604;DHT22;60645;56.968;24.196;2023-08-08T11:31:41;19.80;74.40
72604;DHT22;60645;56.968;24.196;2023-08-08T11:34:08;19.90;71.70
72604;DHT22;60645;56.968;24.196;2023-08-08T11:36:37;19.60;72.20
72604;DHT22;60645;56.968;24.196;2023-08-08T11:39:05;19.90;72.30
72604;DHT22;60645;56.968;24.196;2023-08-08T11:41:37;20.80;69.40
72604;DHT22;60645;56.968;24.196;2023-08-08T11:44:04;22.80;61.60
72604;DHT22;60645;56.968;24.196;2023-08-08T11:46:32;24.70;58.00
72604;DHT22;60645;56.968;24.196;2023-08-08T11:49:06;24.70;57.80
72604;DHT22;60645;56.968;24.196;2023-08-08T11:51:36;25.20;55.20
72604;DHT22;60645;56.968;24.196;2023-08-08T11:54:04;23.90;57.50
72604;DHT22;60645;56.968;24.196;2023-08-08T11:56:33;23.50;59.10
72604;DHT22;60645;56.968;24.196;2023-08-08T11:59:01;24.50;56.60
72604;DHT22;60645;56.968;24.196;2023-08-08T12:01:30;24.70;55.60
72604;DHT22;60645;56.968;24.196;2023-08-08T12:04:03;25.20;55.20
72604;DHT22;60645;56.968;24.196;2023-08-08T12:09:00;27.80;50.10
72604;DHT22;60645;56.968;24.196;2023-08-08T12:11:28;27.50;48.60
72604;DHT22;60645;56.968;24.196;2023-08-08T12:14:00;26.70;50.30
72604;DHT22;60645;56.968;24.196;2023-08-08T12:16:28;26.80;50.90
72604;DHT22;60645;56.968;24.196;2023-08-08T12:18:56;27.70;49.70
72604;DHT22;60645;56.968;24.196;2023-08-08T12:21:23;27.30;49.90
72604;DHT22;60645;56.968;24.196;2023-08-08T12:23:50;25.30;52.70
72604;DHT22;60645;56.968;24.196;2023-08-08T12:26:17;23.20;57.50
72604;DHT22;60645;56.968;24.196;2023-08-08T12:28:44;22.00;61.50
72604;DHT22;60645;56.968;24.196;2023-08-08T12:31:11;20.40;67.20
72604;DHT22;60645;56.968;24.196;2023-08-08T12:33:38;19.80;68.80
72604;DHT22;60645;56.968;24.196;2023-08-08T12:36:04;19.40;69.00
72604;DHT22;60645;56.968;24.196;2023-08-08T12:38:31;20.40;67.00
72604;DHT22;60645;56.968;24.196;2023-08-08T12:41:01;23.60;56.00
72604;DHT22;60645;56.968;24.196;2023-08-08T12:43:28;24.80;53.80
72604;DHT22;60645;56.968;24.196;2023-08-08T12:45:56;24.70;54.70
72604;DHT22;60645;56.968;24.196;2023-08-08T12:48:22;24.30;54.40
72604;DHT22;60645;56.968;24.196;2023-08-08T12:50:49;21.80;60.50
72604;DHT22;60645;56.968;24.196;2023-08-08T12:53:16;19.80;74.80
72604;DHT22;60645;56.968;24.196;2023-08-08T12:55:43;17.70;84.80
72604;DHT22;60645;56.968;24.196;2023-08-08T12:58:10;16.70;89.40
72604;DHT22;60645;56.968;24.196;2023-08-08T13:00:37;16.40;90.40
72604;DHT22;60645;56.968;24.196;2023-08-08T13:03:04;16.30;91.00
72604;DHT22;60645;56.968;24.196;2023-08-08T13:05:31;16.00;91.20
72604;DHT22;60645;56.968;24.196;2023-08-08T13:07:57;15.90;90.80
72604;DHT22;60645;56.968;24.196;2023-08-08T13:10:24;15.70;92.60
72604;DHT22;60645;56.968;24.196;2023-08-08T13:12:51;15.60;92.70
72604;DHT22;60645;56.968;24.196;2023-08-08T13:15:18;15.40;92.20
72604;DHT22;60645;56.968;24.196;2023-08-08T13:17:45;15.40;92.90
72604;DHT22;60645;56.968;24.196;2023-08-08T13:20:11;15.50;91.90
72604;DHT22;60645;56.968;24.196;2023-08-08T13:22:39;15.50;92.80
72604;DHT22;60645;56.968;24.196;2023-08-08T13:25:06;15.60;91.80
72604;DHT22;60645;56.968;24.196;2023-08-08T13:27:33;15.80;90.80
72604;DHT22;60645;56.968;24.196;2023-08-08T13:30:00;15.60;90.60
72604;DHT22;60645;56.968;24.196;2023-08-08T13:32:27;15.60;91.20
72604;DHT22;60645;56.968;24.196;2023-08-08T13:34:53;15.80;90.90
72604;DHT22;60645;56.968;24.196;2023-08-08T13:37:20;15.90;90.90
72604;DHT22;60645;56.968;24.196;2023-08-08T13:39:47;16.20;89.40
72604;DHT22;60645;56.968;24.196;2023-08-08T13:42:14;16.40;89.40
72604;DHT22;60645;56.968;24.196;2023-08-08T13:44:41;16.80;88.70
72604;DHT22;60645;56.968;24.196;2023-08-08T13:47:07;17.10;87.50
72604;DHT22;60645;56.968;24.196;2023-08-08T13:49:34;17.20;86.10
72604;DHT22;60645;56.968;24.196;2023-08-08T13:52:02;16.80;85.60
72604;DHT22;60645;56.968;24.196;2023-08-08T13:54:29;16.70;87.10
72604;DHT22;60645;56.968;24.196;2023-08-08T13:56:56;16.60;87.60
72604;DHT22;60645;56.968;24.196;2023-08-08T13:59:23;16.70;86.70
72604;DHT22;60645;56.968;24.196;2023-08-08T14:01:50;16.70;86.80
72604;DHT22;60645;56.968;24.196;2023-08-08T14:04:17;16.60;85.80
72604;DHT22;60645;56.968;24.196;2023-08-08T14:06:46;16.70;85.80
72604;DHT22;60645;56.968;24.196;2023-08-08T14:09:13;16.80;86.70
72604;DHT22;60645;56.968;24.196;2023-08-08T14:11:43;16.90;85.80
72604;DHT22;60645;56.968;24.196;2023-08-08T14:14:10;17.20;84.60
72604;DHT22;60645;56.968;24.196;2023-08-08T14:16:37;17.30;84.80
72604;DHT22;60645;56.968;24.196;2023-08-08T14:19:04;17.40;85.10
72604;DHT22;60645;56.968;24.196;2023-08-08T14:21:31;17.10;84.50
72604;DHT22;60645;56.968;24.196;2023-08-08T14:23:58;16.90;85.40
72604;DHT22;60645;56.968;24.196;2023-08-08T14:26:25;17.00;84.80
72604;DHT22;60645;56.968;24.196;2023-08-08T14:28:52;17.10;85.00
72604;DHT22;60645;56.968;24.196;2023-08-08T14:31:19;17.00;85.20
72604;DHT22;60645;56.968;24.196;2023-08-08T14:33:46;16.90;86.60
72604;DHT22;60645;56.968;24.196;2023-08-08T14:36:13;16.80;86.20
72604;DHT22;60645;56.968;24.196;2023-08-08T14:38:40;16.60;85.90
72604;DHT22;60645;56.968;24.196;2023-08-08T14:41:07;16.70;87.30
72604;DHT22;60645;56.968;24.196;2023-08-08T14:43:34;16.80;85.80
72604;DHT22;60645;56.968;24.196;2023-08-08T14:46:00;16.70;86.00
72604;DHT22;60645;56.968;24.196;2023-08-08T14:48:27;16.70;85.70
72604;DHT22;60645;56.968;24.196;2023-08-08T14:50:54;16.70;86.00
72604;DHT22;60645;56.968;24.196;2023-08-08T14:53:21;16.80;84.70
72604;DHT22;60645;56.968;24.196;2023-08-08T14:55:48;16.80;85.70
72604;DHT22;60645;56.968;24.196;2023-08-08T14:58:15;16.80;85.90
72604;DHT22;60645;56.968;24.196;2023-08-08T15:00:41;16.80;85.10
72604;DHT22;60645;56.968;24.196;2023-08-08T15:03:09;17.00;85.50
72604;DHT22;60645;56.968;24.196;2023-08-08T15:05:36;17.10;85.30
72604;DHT22;60645;56.968;24.196;2023-08-08T15:08:03;17.10;85.60
72604;DHT22;60645;56.968;24.196;2023-08-08T15:10:30;17.20;84.50
72604;DHT22;60645;56.968;24.196;2023-08-08T15:13:01;17.20;84.80
72604;DHT22;60645;56.968;24.196;2023-08-08T15:15:27;17.40;84.70
72604;DHT22;60645;56.968;24.196;2023-08-08T15:17:56;17.40;83.30
72604;DHT22;60645;56.968;24.196;2023-08-08T15:20:23;17.60;82.40
72604;DHT22;60645;56.968;24.196;2023-08-08T15:22:50;17.90;81.90
72604;DHT22;60645;56.968;24.196;2023-08-08T15:25:17;18.00;80.90
72604;DHT22;60645;56.968;24.196;2023-08-08T15:27:43;18.10;81.70
72604;DHT22;60645;56.968;24.196;2023-08-08T15:30:10;18.20;81.10
72604;DHT22;60645;56.968;24.196;2023-08-08T15:32:37;18.30;80.20
72604;DHT22;60645;56.968;24.196;2023-08-08T15:35:04;18.50;78.60
72604;DHT22;60645;56.968;24.196;2023-08-08T15:37:32;18.60;76.30
72604;DHT22;60645;56.968;24.196;2023-08-08T15:39:59;18.50;75.00
72604;DHT22;60645;56.968;24.196;2023-08-08T15:42:26;18.40;72.80
72604;DHT22;60645;56.968;24.196;2023-08-08T15:44:53;18.20;69.70
72604;DHT22;60645;56.968;24.196;2023-08-08T15:47:20;18.00;71.80
72604;DHT22;60645;56.968;24.196;2023-08-08T15:49:47;17.80;71.40
72604;DHT22;60645;56.968;24.196;2023-08-08T15:52:14;17.80;70.40
72604;DHT22;60645;56.968;24.196;2023-08-08T15:54:41;17.80;71.70
72604;DHT22;60645;56.968;24.196;2023-08-08T15:57:08;17.90;71.20
72604;DHT22;60645;56.968;24.196;2023-08-08T15:59:35;18.10;72.10
72604;DHT22;60645;56.968;24.196;2023-08-08T16:02:03;17.80;73.30
72604;DHT22;60645;56.968;24.196;2023-08-08T16:04:30;17.60;73.50
72604;DHT22;60645;56.968;24.196;2023-08-08T16:06:57;17.50;74.40
72604;DHT22;60645;56.968;24.196;2023-08-08T16:09:25;17.40;75.90
72604;DHT22;60645;56.968;24.196;2023-08-08T16:11:52;17.50;76.60
72604;DHT22;60645;56.968;24.196;2023-08-08T16:14:19;17.40;76.90
72604;DHT22;60645;56.968;24.196;2023-08-08T16:16:46;17.30;78.30
72604;DHT22;60645;56.968;24.196;2023-08-08T16:19:13;17.30;77.50
72604;DHT22;60645;56.968;24.196;2023-08-08T16:21:40;17.30;79.10
72604;DHT22;60645;56.968;24.196;2023-08-08T16:24:07;17.30;77.30
72604;DHT22;60645;56.968;24.196;2023-08-08T16:26:35;17.40;77.70
72604;DHT22;60645;56.968;24.196;2023-08-08T16:29:02;17.30;77.20
72604;DHT22;60645;56.968;24.196;2023-08-08T16:31:29;17.20;77.90
72604;DHT22;60645;56.968;24.196;2023-08-08T16:33:58;17.10;77.80
72604;DHT22;60645;56.968;24.196;2023-08-08T16:36:25;17.00;78.00
72604;DHT22;60645;56.968;24.196;2023-08-08T16:38:52;17.00;78.70
72604;DHT22;60645;56.968;24.196;2023-08-08T16:41:22;17.00;78.20
72604;DHT22;60645;56.968;24.196;2023-08-08T16:44:02;16.80;78.70
72604;DHT22;60645;56.968;24.196;2023-08-08T16:46:29;16.80;79.00
72604;DHT22;60645;56.968;24.196;2023-08-08T16:48:56;16.70;78.80
72604;DHT22;60645;56.968;24.196;2023-08-08T16:51:23;16.80;78.60
72604;DHT22;60645;56.968;24.196;2023-08-08T16:53:50;16.70;79.20
72604;DHT22;60645;56.968;24.196;2023-08-08T16:56:18;16.60;79.10
72604;DHT22;60645;56.968;24.196;2023-08-08T16:58:44;16.50;79.80
72604;DHT22;60645;56.968;24.196;2023-08-08T17:01:11;16.40;80.30
72604;DHT22;60645;56.968;24.196;2023-08-08T17:03:41;16.30;80.90
72604;DHT22;60645;56.968;24.196;2023-08-08T17:06:08;16.10;81.10
72604;DHT22;60645;56.968;24.196;2023-08-08T17:08:37;16.20;81.80
72604;DHT22;60645;56.968;24.196;2023-08-08T17:11:04;16.00;81.80
72604;DHT22;60645;56.968;24.196;2023-08-08T17:13:32;15.90;82.10
72604;DHT22;60645;56.968;24.196;2023-08-08T17:15:59;16.00;81.40
72604;DHT22;60645;56.968;24.196;2023-08-08T17:18:26;16.00;81.70
72604;DHT22;60645;56.968;24.196;2023-08-08T17:20:53;16.00;82.00
72604;DHT22;60645;56.968;24.196;2023-08-08T17:23:19;16.00;82.00
72604;DHT22;60645;56.968;24.196;2023-08-08T17:25:46;16.00;82.20
72604;DHT22;60645;56.968;24.196;2023-08-08T17:28:13;16.00;82.10
72604;DHT22;60645;56.968;24.196;2023-08-08T17:30:40;15.90;82.30
72604;DHT22;60645;56.968;24.196;2023-08-08T17:33:07;15.70;82.60
72604;DHT22;60645;56.968;24.196;2023-08-08T17:35:33;15.80;82.60
72604;DHT22;60645;56.968;24.196;2023-08-08T17:38:01;15.70;82.70
72604;DHT22;60645;56.968;24.196;2023-08-08T17:40:28;15.80;82.70
72604;DHT22;60645;56.968;24.196;2023-08-08T17:42:55;15.70;82.70
72604;DHT22;60645;56.968;24.196;2023-08-08T17:45:22;15.70;82.50
72604;DHT22;60645;56.968;24.196;2023-08-08T17:47:48;15.70;82.10
72604;DHT22;60645;56.968;24.196;2023-08-08T17:50:15;15.80;81.50
72604;DHT22;60645;56.968;24.196;2023-08-08T17:52:42;15.90;80.40
72604;DHT22;60645;56.968;24.196;2023-08-08T17:55:09;15.90;81.10
72604;DHT22;60645;56.968;24.196;2023-08-08T17:57:36;15.90;81.80
72604;DHT22;60645;56.968;24.196;2023-08-08T18:00:03;15.80;82.00
72604;DHT22;60645;56.968;24.196;2023-08-08T18:02:30;15.90;82.10
72604;DHT22;60645;56.968;24.196;2023-08-08T18:04:57;15.60;82.40
72604;DHT22;60645;56.968;24.196;2023-08-08T18:07:24;15.70;82.00
72604;DHT22;60645;56.968;24.196;2023-08-08T18:09:51;15.90;82.10
72604;DHT22;60645;56.968;24.196;2023-08-08T18:12:18;15.80;81.90
72604;DHT22;60645;56.968;24.196;2023-08-08T18:14:45;15.70;82.40
72604;DHT22;60645;56.968;24.196;2023-08-08T18:17:11;15.70;82.80
72604;DHT22;60645;56.968;24.196;2023-08-08T18:19:38;15.60;83.30
72604;DHT22;60645;56.968;24.196;2023-08-08T18:22:05;15.60;83.90
72604;DHT22;60645;56.968;24.196;2023-08-08T18:24:32;15.60;84.60
72604;DHT22;60645;56.968;24.196;2023-08-08T18:26:59;15.40;84.90
72604;DHT22;60645;56.968;24.196;2023-08-08T18:29:26;15.40;85.50
72604;DHT22;60645;56.968;24.196;2023-08-08T18:31:53;15.40;86.00
72604;DHT22;60645;56.968;24.196;2023-08-08T18:34:20;15.30;86.80
72604;DHT22;60645;56.968;24.196;2023-08-08T18:36:46;15.30;86.90
72604;DHT22;60645;56.968;24.196;2023-08-08T18:39:13;15.30;87.20
72604;DHT22;60645;56.968;24.196;2023-08-08T18:41:40;15.20;87.60
72604;DHT22;60645;56.968;24.196;2023-08-08T18:44:07;15.20;87.80
72604;DHT22;60645;56.968;24.196;2023-08-08T18:46:34;15.20;88.00
72604;DHT22;60645;56.968;24.196;2023-08-08T18:49:02;15.10;88.10
72604;DHT22;60645;56.968;24.196;2023-08-08T18:51:29;15.10;87.90
72604;DHT22;60645;56.968;24.196;2023-08-08T18:53:55;15.00;88.00